sensor_id;sensor_type;location;lat;lon;timestamp;P1;durP1;ratioP1;P2;durP2;ratioP2
71814;SDS011;59659;41.520;23.794;2023-05-07T00:00:43;8.80;;;4.95;;
71814;SDS011;59659;41.520;23.794;2023-05-07T00:01:55;10.75;;;5.82;;
71814;SDS011;59659;41.520;23.794;2023-05-07T00:03:07;11.27;;;6.05;;
71814;SDS011;59659;41.520;23.794;2023-05-07T00:04:18;10.60;;;5.18;;
71814;SDS011;59659;41.520;23.794;2023-05-07T00:05:30;14.50;;;5.10;;
71814;SDS011;59659;41.520;23.794;2023-05-07T00:06:42;16.48;;;5.28;;
71814;SDS011;59659;41.520;23.794;2023-05-07T00:07:53;13.95;;;6.05;;
71814;SDS011;59659;41.520;23.794;2023-05-07T00:09:05;17.05;;;5.60;;
71814;SDS011;59659;41.520;23.794;2023-05-07T00:10:17;9.30;;;4.43;;
71814;SDS011;59659;41.520;23.794;2023-05-07T00:11:28;15.02;;;5.35;;
71814;SDS011;59659;41.520;23.794;2023-05-07T00:12:40;13.98;;;5.47;;
71814;SDS011;59659;41.520;23.794;2023-05-07T00:13:51;11.38;;;5.03;;
71814;SDS011;59659;41.520;23.794;2023-05-07T00:15:03;8.18;;;4.70;;
71814;SDS011;59659;41.520;23.794;2023-05-07T00:16:15;8.05;;;4.18;;
71814;SDS011;59659;41.520;23.794;2023-05-07T00:17:26;8.18;;;4.03;;
71814;SDS011;59659;41.520;23.794;2023-05-07T00:18:38;6.95;;;4.10;;
71814;SDS011;59659;41.520;23.794;2023-05-07T00:19:50;7.15;;;3.75;;
71814;SDS011;59659;41.520;23.794;2023-05-07T00:21:01;7.93;;;3.95;;
71814;SDS011;59659;41.520;23.794;2023-05-07T00:22:12;7.72;;;3.85;;
71814;SDS011;59659;41.520;23.794;2023-05-07T00:23:24;8.25;;;3.70;;
71814;SDS011;59659;41.520;23.794;2023-05-07T00:24:35;7.75;;;3.83;;
71814;SDS011;59659;41.520;23.794;2023-05-07T00:25:47;8.95;;;4.10;;
71814;SDS011;59659;41.520;23.794;2023-05-07T00:26:58;7.22;;;3.28;;
71814;SDS011;59659;41.520;23.794;2023-05-07T00:28:10;7.05;;;4.45;;
71814;SDS011;59659;41.520;23.794;2023-05-07T00:29:21;6.20;;;4.32;;
71814;SDS011;59659;41.520;23.794;2023-05-07T00:30:33;7.25;;;4.20;;
71814;SDS011;59659;41.520;23.794;2023-05-07T00:31:44;10.48;;;4.97;;
71814;SDS011;59659;41.520;23.794;2023-05-07T00:32:56;7.25;;;3.85;;
71814;SDS011;59659;41.520;23.794;2023-05-07T00:34:08;6.72;;;3.90;;
71814;SDS011;59659;41.520;23.794;2023-05-07T00:35:19;6.65;;;4.25;;
71814;SDS011;59659;41.520;23.794;2023-05-07T00:36:31;6.20;;;3.97;;
71814;SDS011;59659;41.520;23.794;2023-05-07T00:37:43;5.72;;;3.45;;
71814;SDS011;59659;41.520;23.794;2023-05-07T00:38:54;9.02;;;4.32;;
71814;SDS011;59659;41.520;23.794;2023-05-07T00:40:06;8.32;;;5.15;;
71814;SDS011;59659;41.520;23.794;2023-05-07T00:41:20;6.85;;;3.70;;
71814;SDS011;59659;41.520;23.794;2023-05-07T00:42:31;7.28;;;3.97;;
71814;SDS011;59659;41.520;23.794;2023-05-07T00:43:43;8.13;;;4.43;;
71814;SDS011;59659;41.520;23.794;2023-05-07T00:44:55;5.35;;;3.60;;
71814;SDS011;59659;41.520;23.794;2023-05-07T00:46:06;7.55;;;4.18;;
71814;SDS011;59659;41.520;23.794;2023-05-07T00:47:18;8.00;;;4.65;;
71814;SDS011;59659;41.520;23.794;2023-05-07T00:48:29;10.55;;;4.35;;
71814;SDS011;59659;41.520;23.794;2023-05-07T00:49:41;8.07;;;3.65;;
71814;SDS011;59659;41.520;23.794;2023-05-07T00:50:54;7.88;;;4.60;;
71814;SDS011;59659;41.520;23.794;2023-05-07T00:52:06;9.65;;;4.43;;
71814;SDS011;59659;41.520;23.794;2023-05-07T00:53:18;7.53;;;4.28;;
71814;SDS011;59659;41.520;23.794;2023-05-07T00:54:29;9.65;;;4.50;;
71814;SDS011;59659;41.520;23.794;2023-05-07T00:55:41;5.70;;;3.75;;
71814;SDS011;59659;41.520;23.794;2023-05-07T00:56:53;6.28;;;4.00;;
71814;SDS011;59659;41.520;23.794;2023-05-07T00:58:05;15.15;;;4.93;;
71814;SDS011;59659;41.520;23.794;2023-05-07T00:59:17;9.23;;;5.30;;
71814;SDS011;59659;41.520;23.794;2023-05-07T01:00:28;12.48;;;6.13;;
71814;SDS011;59659;41.520;23.794;2023-05-07T01:01:40;21.25;;;10.48;;
71814;SDS011;59659;41.520;23.794;2023-05-07T01:02:51;27.00;;;11.52;;
71814;SDS011;59659;41.520;23.794;2023-05-07T01:04:03;28.95;;;12.52;;
71814;SDS011;59659;41.520;23.794;2023-05-07T01:05:15;34.65;;;12.85;;
71814;SDS011;59659;41.520;23.794;2023-05-07T01:06:28;30.27;;;13.52;;
71814;SDS011;59659;41.520;23.794;2023-05-07T01:07:41;12.70;;;6.90;;
71814;SDS011;59659;41.520;23.794;2023-05-07T01:08:53;10.43;;;5.45;;
71814;SDS011;59659;41.520;23.794;2023-05-07T01:10:08;16.90;;;6.85;;
71814;SDS011;59659;41.520;23.794;2023-05-07T01:11:20;18.02;;;7.68;;
71814;SDS011;59659;41.520;23.794;2023-05-07T01:12:32;18.35;;;8.05;;
71814;SDS011;59659;41.520;23.794;2023-05-07T01:13:44;13.15;;;6.88;;
71814;SDS011;59659;41.520;23.794;2023-05-07T01:14:56;8.82;;;5.13;;
71814;SDS011;59659;41.520;23.794;2023-05-07T01:16:08;12.55;;;5.20;;
71814;SDS011;59659;41.520;23.794;2023-05-07T01:17:20;7.93;;;3.95;;
71814;SDS011;59659;41.520;23.794;2023-05-07T01:18:32;12.02;;;4.63;;
71814;SDS011;59659;41.520;23.794;2023-05-07T01:19:43;8.95;;;4.75;;
71814;SDS011;59659;41.520;23.794;2023-05-07T01:20:58;12.02;;;4.40;;
71814;SDS011;59659;41.520;23.794;2023-05-07T01:22:10;9.75;;;4.53;;
71814;SDS011;59659;41.520;23.794;2023-05-07T01:23:26;5.40;;;3.70;;
71814;SDS011;59659;41.520;23.794;2023-05-07T01:24:38;6.50;;;3.85;;
71814;SDS011;59659;41.520;23.794;2023-05-07T01:25:53;8.05;;;4.25;;
71814;SDS011;59659;41.520;23.794;2023-05-07T01:27:04;6.45;;;3.83;;
71814;SDS011;59659;41.520;23.794;2023-05-07T01:28:16;6.15;;;3.60;;
71814;SDS011;59659;41.520;23.794;2023-05-07T01:29:28;6.25;;;3.88;;
71814;SDS011;59659;41.520;23.794;2023-05-07T01:30:39;4.88;;;3.30;;
71814;SDS011;59659;41.520;23.794;2023-05-07T01:31:53;8.80;;;3.95;;
71814;SDS011;59659;41.520;23.794;2023-05-07T01:33:09;5.20;;;4.30;;
71814;SDS011;59659;41.520;23.794;2023-05-07T01:34:20;7.78;;;3.75;;
71814;SDS011;59659;41.520;23.794;2023-05-07T01:35:35;7.00;;;4.10;;
71814;SDS011;59659;41.520;23.794;2023-05-07T01:36:47;5.55;;;3.33;;
71814;SDS011;59659;41.520;23.794;2023-05-07T01:37:59;5.55;;;3.60;;
71814;SDS011;59659;41.520;23.794;2023-05-07T01:39:11;10.75;;;4.82;;
71814;SDS011;59659;41.520;23.794;2023-05-07T01:40:24;7.53;;;4.18;;
71814;SDS011;59659;41.520;23.794;2023-05-07T01:41:35;8.73;;;4.72;;
71814;SDS011;59659;41.520;23.794;2023-05-07T01:42:47;7.55;;;4.18;;
71814;SDS011;59659;41.520;23.794;2023-05-07T01:43:59;7.30;;;3.85;;
71814;SDS011;59659;41.520;23.794;2023-05-07T01:45:11;6.47;;;3.97;;
71814;SDS011;59659;41.520;23.794;2023-05-07T01:46:23;9.88;;;4.72;;
71814;SDS011;59659;41.520;23.794;2023-05-07T01:47:35;9.52;;;3.67;;
71814;SDS011;59659;41.520;23.794;2023-05-07T01:48:47;5.03;;;3.78;;
71814;SDS011;59659;41.520;23.794;2023-05-07T01:49:58;8.98;;;3.05;;
71814;SDS011;59659;41.520;23.794;2023-05-07T01:51:10;7.95;;;4.70;;
71814;SDS011;59659;41.520;23.794;2023-05-07T01:52:22;7.57;;;3.55;;
71814;SDS011;59659;41.520;23.794;2023-05-07T01:53:36;6.47;;;4.05;;
71814;SDS011;59659;41.520;23.794;2023-05-07T01:54:48;7.75;;;3.65;;
71814;SDS011;59659;41.520;23.794;2023-05-07T01:55:59;7.05;;;3.30;;
71814;SDS011;59659;41.520;23.794;2023-05-07T01:57:11;5.38;;;3.25;;
71814;SDS011;59659;41.520;23.794;2023-05-07T01:58:22;6.00;;;3.63;;
71814;SDS011;59659;41.520;23.794;2023-05-07T01:59:34;6.28;;;3.92;;
71814;SDS011;59659;41.520;23.794;2023-05-07T02:00:45;4.75;;;3.17;;
71814;SDS011;59659;41.520;23.794;2023-05-07T02:01:57;7.55;;;4.30;;
71814;SDS011;59659;41.520;23.794;2023-05-07T02:03:08;7.50;;;3.47;;
71814;SDS011;59659;41.520;23.794;2023-05-07T02:04:20;7.50;;;4.13;;
71814;SDS011;59659;41.520;23.794;2023-05-07T02:05:32;5.90;;;3.85;;
71814;SDS011;59659;41.520;23.794;2023-05-07T02:06:43;5.32;;;3.35;;
71814;SDS011;59659;41.520;23.794;2023-05-07T02:07:55;6.60;;;3.40;;
71814;SDS011;59659;41.520;23.794;2023-05-07T02:09:06;4.82;;;3.08;;
71814;SDS011;59659;41.520;23.794;2023-05-07T02:10:20;6.28;;;2.83;;
71814;SDS011;59659;41.520;23.794;2023-05-07T02:11:31;5.43;;;3.92;;
71814;SDS011;59659;41.520;23.794;2023-05-07T02:12:43;5.25;;;3.55;;
71814;SDS011;59659;41.520;23.794;2023-05-07T02:13:54;6.15;;;4.07;;
71814;SDS011;59659;41.520;23.794;2023-05-07T02:15:06;5.47;;;3.67;;
71814;SDS011;59659;41.520;23.794;2023-05-07T02:16:18;6.00;;;3.33;;
71814;SDS011;59659;41.520;23.794;2023-05-07T02:17:30;5.15;;;3.10;;
71814;SDS011;59659;41.520;23.794;2023-05-07T02:18:43;8.05;;;3.72;;
71814;SDS011;59659;41.520;23.794;2023-05-07T02:19:54;5.25;;;2.90;;
71814;SDS011;59659;41.520;23.794;2023-05-07T02:21:06;6.20;;;3.58;;
71814;SDS011;59659;41.520;23.794;2023-05-07T02:22:17;6.50;;;3.45;;
71814;SDS011;59659;41.520;23.794;2023-05-07T02:23:29;8.90;;;4.18;;
71814;SDS011;59659;41.520;23.794;2023-05-07T02:24:40;6.35;;;3.75;;
71814;SDS011;59659;41.520;23.794;2023-05-07T02:25:52;5.50;;;3.78;;
71814;SDS011;59659;41.520;23.794;2023-05-07T02:27:03;6.25;;;3.30;;
71814;SDS011;59659;41.520;23.794;2023-05-07T02:28:15;6.03;;;3.80;;
71814;SDS011;59659;41.520;23.794;2023-05-07T02:29:26;6.18;;;3.55;;
71814;SDS011;59659;41.520;23.794;2023-05-07T02:30:38;5.72;;;4.07;;
71814;SDS011;59659;41.520;23.794;2023-05-07T02:31:49;6.53;;;3.25;;
71814;SDS011;59659;41.520;23.794;2023-05-07T02:33:02;4.90;;;3.63;;
71814;SDS011;59659;41.520;23.794;2023-05-07T02:34:13;5.95;;;4.18;;
71814;SDS011;59659;41.520;23.794;2023-05-07T02:35:25;6.90;;;3.38;;
71814;SDS011;59659;41.520;23.794;2023-05-07T02:36:37;8.10;;;4.90;;
71814;SDS011;59659;41.520;23.794;2023-05-07T02:37:48;6.07;;;3.83;;
71814;SDS011;59659;41.520;23.794;2023-05-07T02:39:00;5.95;;;3.75;;
71814;SDS011;59659;41.520;23.794;2023-05-07T02:40:11;10.35;;;4.13;;
71814;SDS011;59659;41.520;23.794;2023-05-07T02:41:23;5.25;;;3.80;;
71814;SDS011;59659;41.520;23.794;2023-05-07T02:42:35;9.35;;;4.35;;
71814;SDS011;59659;41.520;23.794;2023-05-07T02:43:47;7.15;;;4.30;;
71814;SDS011;59659;41.520;23.794;2023-05-07T02:44:58;7.75;;;4.60;;
71814;SDS011;59659;41.520;23.794;2023-05-07T02:46:09;8.15;;;4.57;;
71814;SDS011;59659;41.520;23.794;2023-05-07T02:47:21;10.80;;;4.43;;
71814;SDS011;59659;41.520;23.794;2023-05-07T02:48:33;7.07;;;4.18;;
71814;SDS011;59659;41.520;23.794;2023-05-07T02:49:45;8.65;;;4.22;;
71814;SDS011;59659;41.520;23.794;2023-05-07T02:50:57;7.80;;;4.20;;
71814;SDS011;59659;41.520;23.794;2023-05-07T02:52:09;7.15;;;4.43;;
71814;SDS011;59659;41.520;23.794;2023-05-07T02:53:20;10.75;;;4.05;;
71814;SDS011;59659;41.520;23.794;2023-05-07T02:54:32;6.85;;;3.67;;
71814;SDS011;59659;41.520;23.794;2023-05-07T02:55:43;5.57;;;3.42;;
71814;SDS011;59659;41.520;23.794;2023-05-07T02:56:55;6.32;;;4.10;;
71814;SDS011;59659;41.520;23.794;2023-05-07T02:58:07;10.95;;;4.88;;
71814;SDS011;59659;41.520;23.794;2023-05-07T02:59:19;14.57;;;6.00;;
71814;SDS011;59659;41.520;23.794;2023-05-07T03:00:30;11.18;;;4.75;;
71814;SDS011;59659;41.520;23.794;2023-05-07T03:01:41;10.52;;;4.40;;
71814;SDS011;59659;41.520;23.794;2023-05-07T03:02:55;9.88;;;5.03;;
71814;SDS011;59659;41.520;23.794;2023-05-07T03:04:07;9.40;;;5.70;;
71814;SDS011;59659;41.520;23.794;2023-05-07T03:05:19;11.63;;;5.07;;
71814;SDS011;59659;41.520;23.794;2023-05-07T03:06:30;9.00;;;4.28;;
71814;SDS011;59659;41.520;23.794;2023-05-07T03:07:42;7.95;;;4.35;;
71814;SDS011;59659;41.520;23.794;2023-05-07T03:08:56;7.13;;;3.83;;
71814;SDS011;59659;41.520;23.794;2023-05-07T03:10:08;6.70;;;3.88;;
71814;SDS011;59659;41.520;23.794;2023-05-07T03:11:19;10.35;;;4.70;;
71814;SDS011;59659;41.520;23.794;2023-05-07T03:12:31;9.82;;;4.22;;
71814;SDS011;59659;41.520;23.794;2023-05-07T03:13:42;6.43;;;3.80;;
71814;SDS011;59659;41.520;23.794;2023-05-07T03:14:54;7.30;;;4.05;;
71814;SDS011;59659;41.520;23.794;2023-05-07T03:16:05;8.75;;;4.60;;
71814;SDS011;59659;41.520;23.794;2023-05-07T03:17:17;7.40;;;3.95;;
71814;SDS011;59659;41.520;23.794;2023-05-07T03:18:28;5.78;;;3.40;;
71814;SDS011;59659;41.520;23.794;2023-05-07T03:19:40;7.70;;;4.22;;
71814;SDS011;59659;41.520;23.794;2023-05-07T03:20:51;7.88;;;4.00;;
71814;SDS011;59659;41.520;23.794;2023-05-07T03:22:03;8.82;;;4.13;;
71814;SDS011;59659;41.520;23.794;2023-05-07T03:23:14;10.95;;;4.47;;
71814;SDS011;59659;41.520;23.794;2023-05-07T03:24:26;7.10;;;3.88;;
71814;SDS011;59659;41.520;23.794;2023-05-07T03:25:38;7.03;;;4.22;;
71814;SDS011;59659;41.520;23.794;2023-05-07T03:26:49;9.43;;;4.55;;
71814;SDS011;59659;41.520;23.794;2023-05-07T03:28:00;5.28;;;3.83;;
71814;SDS011;59659;41.520;23.794;2023-05-07T03:29:12;6.32;;;3.92;;
71814;SDS011;59659;41.520;23.794;2023-05-07T03:30:24;6.47;;;3.60;;
71814;SDS011;59659;41.520;23.794;2023-05-07T03:31:35;7.32;;;3.38;;
71814;SDS011;59659;41.520;23.794;2023-05-07T03:32:47;7.20;;;3.53;;
71814;SDS011;59659;41.520;23.794;2023-05-07T03:33:58;10.00;;;4.68;;
71814;SDS011;59659;41.520;23.794;2023-05-07T03:35:10;9.30;;;4.30;;
71814;SDS011;59659;41.520;23.794;2023-05-07T03:36:21;5.30;;;3.38;;
71814;SDS011;59659;41.520;23.794;2023-05-07T03:37:33;6.85;;;3.38;;
71814;SDS011;59659;41.520;23.794;2023-05-07T03:38:45;6.40;;;5.05;;
71814;SDS011;59659;41.520;23.794;2023-05-07T03:39:57;6.18;;;3.15;;
71814;SDS011;59659;41.520;23.794;2023-05-07T03:41:08;9.35;;;3.70;;
71814;SDS011;59659;41.520;23.794;2023-05-07T03:42:20;5.20;;;3.33;;
71814;SDS011;59659;41.520;23.794;2023-05-07T03:43:31;7.80;;;3.67;;
71814;SDS011;59659;41.520;23.794;2023-05-07T03:44:43;7.30;;;3.95;;
71814;SDS011;59659;41.520;23.794;2023-05-07T03:45:54;7.72;;;4.10;;
71814;SDS011;59659;41.520;23.794;2023-05-07T03:47:06;6.15;;;3.63;;
71814;SDS011;59659;41.520;23.794;2023-05-07T03:48:17;12.80;;;4.88;;
71814;SDS011;59659;41.520;23.794;2023-05-07T03:49:29;6.22;;;3.72;;
71814;SDS011;59659;41.520;23.794;2023-05-07T03:50:40;6.15;;;3.85;;
71814;SDS011;59659;41.520;23.794;2023-05-07T03:51:52;11.93;;;6.22;;
71814;SDS011;59659;41.520;23.794;2023-05-07T03:53:03;20.73;;;7.53;;
71814;SDS011;59659;41.520;23.794;2023-05-07T03:54:15;11.77;;;6.80;;
71814;SDS011;59659;41.520;23.794;2023-05-07T03:55:26;7.38;;;4.88;;
71814;SDS011;59659;41.520;23.794;2023-05-07T03:56:38;10.82;;;5.93;;
71814;SDS011;59659;41.520;23.794;2023-05-07T03:57:50;12.30;;;5.65;;
71814;SDS011;59659;41.520;23.794;2023-05-07T03:59:01;6.93;;;5.10;;
71814;SDS011;59659;41.520;23.794;2023-05-07T04:00:13;8.95;;;5.03;;
71814;SDS011;59659;41.520;23.794;2023-05-07T04:01:25;8.02;;;5.25;;
71814;SDS011;59659;41.520;23.794;2023-05-07T04:02:36;9.13;;;5.85;;
71814;SDS011;59659;41.520;23.794;2023-05-07T04:03:48;9.95;;;5.00;;
71814;SDS011;59659;41.520;23.794;2023-05-07T04:04:59;14.45;;;6.60;;
71814;SDS011;59659;41.520;23.794;2023-05-07T04:06:11;9.55;;;5.80;;
71814;SDS011;59659;41.520;23.794;2023-05-07T04:07:23;11.15;;;6.13;;
71814;SDS011;59659;41.520;23.794;2023-05-07T04:08:34;13.32;;;5.32;;
71814;SDS011;59659;41.520;23.794;2023-05-07T04:09:46;11.23;;;6.75;;
71814;SDS011;59659;41.520;23.794;2023-05-07T04:10:58;11.40;;;6.05;;
71814;SDS011;59659;41.520;23.794;2023-05-07T04:12:11;13.57;;;7.38;;
71814;SDS011;59659;41.520;23.794;2023-05-07T04:13:22;7.60;;;5.45;;
71814;SDS011;59659;41.520;23.794;2023-05-07T04:14:34;8.20;;;4.88;;
71814;SDS011;59659;41.520;23.794;2023-05-07T04:15:45;6.95;;;4.10;;
71814;SDS011;59659;41.520;23.794;2023-05-07T04:17:00;12.25;;;5.43;;
71814;SDS011;59659;41.520;23.794;2023-05-07T04:18:12;6.55;;;4.47;;
71814;SDS011;59659;41.520;23.794;2023-05-07T04:19:24;7.78;;;4.30;;
71814;SDS011;59659;41.520;23.794;2023-05-07T04:20:35;8.02;;;4.82;;
71814;SDS011;59659;41.520;23.794;2023-05-07T04:21:47;6.53;;;3.88;;
71814;SDS011;59659;41.520;23.794;2023-05-07T04:22:59;8.45;;;5.25;;
71814;SDS011;59659;41.520;23.794;2023-05-07T04:24:10;11.35;;;5.35;;
71814;SDS011;59659;41.520;23.794;2023-05-07T04:25:22;9.60;;;5.13;;
71814;SDS011;59659;41.520;23.794;2023-05-07T04:26:37;9.40;;;5.60;;
71814;SDS011;59659;41.520;23.794;2023-05-07T04:27:49;11.52;;;5.45;;
71814;SDS011;59659;41.520;23.794;2023-05-07T04:29:01;8.23;;;5.22;;
71814;SDS011;59659;41.520;23.794;2023-05-07T04:30:13;10.00;;;5.30;;
71814;SDS011;59659;41.520;23.794;2023-05-07T04:31:25;11.10;;;5.63;;
71814;SDS011;59659;41.520;23.794;2023-05-07T04:32:37;13.80;;;6.10;;
71814;SDS011;59659;41.520;23.794;2023-05-07T04:33:48;8.32;;;4.82;;
71814;SDS011;59659;41.520;23.794;2023-05-07T04:35:00;12.77;;;6.20;;
71814;SDS011;59659;41.520;23.794;2023-05-07T04:36:11;13.27;;;6.18;;
71814;SDS011;59659;41.520;23.794;2023-05-07T04:37:23;9.57;;;5.43;;
71814;SDS011;59659;41.520;23.794;2023-05-07T04:38:34;9.23;;;4.82;;
71814;SDS011;59659;41.520;23.794;2023-05-07T04:39:46;10.85;;;5.30;;
71814;SDS011;59659;41.520;23.794;2023-05-07T04:41:02;12.30;;;6.40;;
71814;SDS011;59659;41.520;23.794;2023-05-07T04:42:17;9.75;;;5.38;;
71814;SDS011;59659;41.520;23.794;2023-05-07T04:43:28;9.18;;;5.57;;
71814;SDS011;59659;41.520;23.794;2023-05-07T04:44:40;8.48;;;4.95;;
71814;SDS011;59659;41.520;23.794;2023-05-07T04:45:52;8.25;;;5.28;;
71814;SDS011;59659;41.520;23.794;2023-05-07T04:47:03;11.07;;;5.32;;
71814;SDS011;59659;41.520;23.794;2023-05-07T04:48:15;13.20;;;5.65;;
71814;SDS011;59659;41.520;23.794;2023-05-07T04:49:27;10.52;;;4.70;;
71814;SDS011;59659;41.520;23.794;2023-05-07T04:50:38;11.15;;;5.55;;
71814;SDS011;59659;41.520;23.794;2023-05-07T04:51:50;7.28;;;4.32;;
71814;SDS011;59659;41.520;23.794;2023-05-07T04:53:01;7.85;;;4.88;;
71814;SDS011;59659;41.520;23.794;2023-05-07T04:54:14;10.15;;;4.78;;
71814;SDS011;59659;41.520;23.794;2023-05-07T04:55:25;8.98;;;4.65;;
71814;SDS011;59659;41.520;23.794;2023-05-07T04:56:37;9.57;;;5.82;;
71814;SDS011;59659;41.520;23.794;2023-05-07T04:57:48;14.82;;;6.80;;
71814;SDS011;59659;41.520;23.794;2023-05-07T04:59:00;11.20;;;6.03;;
71814;SDS011;59659;41.520;23.794;2023-05-07T05:00:11;9.82;;;5.35;;
71814;SDS011;59659;41.520;23.794;2023-05-07T05:01:25;9.40;;;4.35;;
71814;SDS011;59659;41.520;23.794;2023-05-07T05:02:37;7.93;;;4.57;;
71814;SDS011;59659;41.520;23.794;2023-05-07T05:03:48;9.00;;;4.55;;
71814;SDS011;59659;41.520;23.794;2023-05-07T05:05:00;8.43;;;4.38;;
71814;SDS011;59659;41.520;23.794;2023-05-07T05:06:13;8.00;;;4.60;;
71814;SDS011;59659;41.520;23.794;2023-05-07T05:07:24;5.85;;;3.78;;
71814;SDS011;59659;41.520;23.794;2023-05-07T05:08:36;10.00;;;4.43;;
71814;SDS011;59659;41.520;23.794;2023-05-07T05:09:47;6.78;;;3.65;;
71814;SDS011;59659;41.520;23.794;2023-05-07T05:11:00;10.05;;;5.18;;
71814;SDS011;59659;41.520;23.794;2023-05-07T05:12:12;7.40;;;4.20;;
71814;SDS011;59659;41.520;23.794;2023-05-07T05:13:23;9.00;;;4.78;;
71814;SDS011;59659;41.520;23.794;2023-05-07T05:14:35;10.32;;;4.15;;
71814;SDS011;59659;41.520;23.794;2023-05-07T05:15:46;7.18;;;4.22;;
71814;SDS011;59659;41.520;23.794;2023-05-07T05:16:58;7.68;;;4.30;;
71814;SDS011;59659;41.520;23.794;2023-05-07T05:18:09;8.23;;;4.20;;
71814;SDS011;59659;41.520;23.794;2023-05-07T05:19:20;5.43;;;3.80;;
71814;SDS011;59659;41.520;23.794;2023-05-07T05:20:32;6.85;;;4.18;;
71814;SDS011;59659;41.520;23.794;2023-05-07T05:21:43;7.57;;;4.07;;
71814;SDS011;59659;41.520;23.794;2023-05-07T05:22:55;8.02;;;4.05;;
71814;SDS011;59659;41.520;23.794;2023-05-07T05:24:06;8.60;;;4.35;;
71814;SDS011;59659;41.520;23.794;2023-05-07T05:25:18;7.88;;;4.70;;
71814;SDS011;59659;41.520;23.794;2023-05-07T05:26:29;7.80;;;4.10;;
71814;SDS011;59659;41.520;23.794;2023-05-07T05:27:41;5.43;;;3.92;;
71814;SDS011;59659;41.520;23.794;2023-05-07T05:28:52;7.05;;;4.53;;
71814;SDS011;59659;41.520;23.794;2023-05-07T05:30:04;7.38;;;4.22;;
71814;SDS011;59659;41.520;23.794;2023-05-07T05:31:16;12.80;;;5.72;;
71814;SDS011;59659;41.520;23.794;2023-05-07T05:32:28;10.27;;;4.30;;
71814;SDS011;59659;41.520;23.794;2023-05-07T05:33:39;8.30;;;4.22;;
71814;SDS011;59659;41.520;23.794;2023-05-07T05:34:51;17.50;;;4.57;;
71814;SDS011;59659;41.520;23.794;2023-05-07T05:36:03;12.45;;;4.43;;
71814;SDS011;59659;41.520;23.794;2023-05-07T05:37:14;8.82;;;5.22;;
71814;SDS011;59659;41.520;23.794;2023-05-07T05:38:26;6.97;;;4.53;;
71814;SDS011;59659;41.520;23.794;2023-05-07T05:39:37;7.13;;;4.72;;
71814;SDS011;59659;41.520;23.794;2023-05-07T05:40:49;6.50;;;3.72;;
71814;SDS011;59659;41.520;23.794;2023-05-07T05:42:00;6.43;;;4.13;;
71814;SDS011;59659;41.520;23.794;2023-05-07T05:43:12;7.93;;;4.43;;
71814;SDS011;59659;41.520;23.794;2023-05-07T05:44:23;7.50;;;4.53;;
71814;SDS011;59659;41.520;23.794;2023-05-07T05:45:35;6.13;;;3.80;;
71814;SDS011;59659;41.520;23.794;2023-05-07T05:46:46;7.87;;;4.33;;
71814;SDS011;59659;41.520;23.794;2023-05-07T05:47:58;6.03;;;3.80;;
71814;SDS011;59659;41.520;23.794;2023-05-07T05:49:10;6.80;;;3.87;;
71814;SDS011;59659;41.520;23.794;2023-05-07T05:50:21;7.50;;;3.90;;
71814;SDS011;59659;41.520;23.794;2023-05-07T05:51:32;9.00;;;4.70;;
71814;SDS011;59659;41.520;23.794;2023-05-07T05:52:44;7.33;;;4.50;;
71814;SDS011;59659;41.520;23.794;2023-05-07T05:53:56;6.07;;;4.50;;
71814;SDS011;59659;41.520;23.794;2023-05-07T05:55:07;7.07;;;3.63;;
71814;SDS011;59659;41.520;23.794;2023-05-07T05:56:19;5.57;;;3.53;;
71814;SDS011;59659;41.520;23.794;2023-05-07T05:57:32;6.93;;;4.13;;
71814;SDS011;59659;41.520;23.794;2023-05-07T05:58:43;8.30;;;4.60;;
71814;SDS011;59659;41.520;23.794;2023-05-07T05:59:55;7.73;;;3.63;;
71814;SDS011;59659;41.520;23.794;2023-05-07T06:01:06;5.30;;;3.30;;
71814;SDS011;59659;41.520;23.794;2023-05-07T06:02:18;5.13;;;3.50;;
71814;SDS011;59659;41.520;23.794;2023-05-07T06:03:29;6.53;;;4.03;;
71814;SDS011;59659;41.520;23.794;2023-05-07T06:04:41;5.40;;;3.47;;
71814;SDS011;59659;41.520;23.794;2023-05-07T06:05:54;7.23;;;3.97;;
71814;SDS011;59659;41.520;23.794;2023-05-07T06:07:05;9.27;;;4.03;;
71814;SDS011;59659;41.520;23.794;2023-05-07T06:08:17;5.80;;;4.10;;
71814;SDS011;59659;41.520;23.794;2023-05-07T06:09:29;7.70;;;3.63;;
71814;SDS011;59659;41.520;23.794;2023-05-07T06:10:41;8.60;;;3.80;;
71814;SDS011;59659;41.520;23.794;2023-05-07T06:11:52;6.23;;;3.73;;
71814;SDS011;59659;41.520;23.794;2023-05-07T06:13:04;6.20;;;3.87;;
71814;SDS011;59659;41.520;23.794;2023-05-07T06:14:15;7.63;;;4.00;;
71814;SDS011;59659;41.520;23.794;2023-05-07T06:15:27;8.83;;;3.63;;
71814;SDS011;59659;41.520;23.794;2023-05-07T06:16:38;6.37;;;3.80;;
71814;SDS011;59659;41.520;23.794;2023-05-07T06:17:50;5.97;;;3.47;;
71814;SDS011;59659;41.520;23.794;2023-05-07T06:19:01;6.67;;;4.00;;
71814;SDS011;59659;41.520;23.794;2023-05-07T06:20:13;5.57;;;4.13;;
71814;SDS011;59659;41.520;23.794;2023-05-07T06:21:24;5.57;;;3.57;;
71814;SDS011;59659;41.520;23.794;2023-05-07T06:22:36;7.53;;;3.43;;
71814;SDS011;59659;41.520;23.794;2023-05-07T06:23:47;6.00;;;3.60;;
71814;SDS011;59659;41.520;23.794;2023-05-07T06:24:59;5.83;;;3.50;;
71814;SDS011;59659;41.520;23.794;2023-05-07T06:26:10;4.70;;;3.23;;
71814;SDS011;59659;41.520;23.794;2023-05-07T06:27:21;8.30;;;3.77;;
71814;SDS011;59659;41.520;23.794;2023-05-07T06:28:33;6.73;;;3.63;;
71814;SDS011;59659;41.520;23.794;2023-05-07T06:29:48;6.77;;;3.80;;
71814;SDS011;59659;41.520;23.794;2023-05-07T06:31:10;7.43;;;4.00;;
71814;SDS011;59659;41.520;23.794;2023-05-07T06:32:21;7.00;;;3.57;;
71814;SDS011;59659;41.520;23.794;2023-05-07T06:33:33;5.23;;;3.37;;
71814;SDS011;59659;41.520;23.794;2023-05-07T06:34:46;7.07;;;3.90;;
71814;SDS011;59659;41.520;23.794;2023-05-07T06:35:58;5.10;;;3.47;;
71814;SDS011;59659;41.520;23.794;2023-05-07T06:37:09;6.33;;;3.73;;
71814;SDS011;59659;41.520;23.794;2023-05-07T06:38:20;8.70;;;3.57;;
71814;SDS011;59659;41.520;23.794;2023-05-07T06:39:32;5.13;;;3.17;;
71814;SDS011;59659;41.520;23.794;2023-05-07T06:40:49;5.13;;;3.47;;
71814;SDS011;59659;41.520;23.794;2023-05-07T06:42:00;8.07;;;4.10;;
71814;SDS011;59659;41.520;23.794;2023-05-07T06:43:13;5.77;;;3.17;;
71814;SDS011;59659;41.520;23.794;2023-05-07T06:44:24;6.33;;;3.33;;
71814;SDS011;59659;41.520;23.794;2023-05-07T06:45:35;5.50;;;3.37;;
71814;SDS011;59659;41.520;23.794;2023-05-07T06:46:47;5.10;;;3.20;;
71814;SDS011;59659;41.520;23.794;2023-05-07T06:47:59;4.03;;;2.93;;
71814;SDS011;59659;41.520;23.794;2023-05-07T06:49:12;5.97;;;3.83;;
71814;SDS011;59659;41.520;23.794;2023-05-07T06:50:23;5.20;;;3.13;;
71814;SDS011;59659;41.520;23.794;2023-05-07T06:51:35;4.80;;;2.77;;
71814;SDS011;59659;41.520;23.794;2023-05-07T06:52:46;5.17;;;3.37;;
71814;SDS011;59659;41.520;23.794;2023-05-07T06:53:57;8.00;;;3.60;;
71814;SDS011;59659;41.520;23.794;2023-05-07T06:55:09;6.47;;;3.97;;
71814;SDS011;59659;41.520;23.794;2023-05-07T06:56:22;8.10;;;3.30;;
71814;SDS011;59659;41.520;23.794;2023-05-07T06:57:34;5.97;;;3.50;;
71814;SDS011;59659;41.520;23.794;2023-05-07T06:58:46;5.07;;;3.13;;
71814;SDS011;59659;41.520;23.794;2023-05-07T06:59:57;4.23;;;2.87;;
71814;SDS011;59659;41.520;23.794;2023-05-07T07:01:08;5.43;;;3.57;;
71814;SDS011;59659;41.520;23.794;2023-05-07T07:02:20;4.30;;;3.17;;
71814;SDS011;59659;41.520;23.794;2023-05-07T07:03:32;4.93;;;3.03;;
71814;SDS011;59659;41.520;23.794;2023-05-07T07:04:43;4.63;;;3.20;;